Terminal Aerodrome Forecast
Issued by NWS

Home | Current Version | Previous Version | Text Only | Print | Product List | Glossary On
Versions: 1 2 3 4 5 6 7 8 9 10 11 12 13 14 15 16 17 18
192
FTUS43 KFGF 221720
TAFBJI
TAF
KBJI 221720Z 2218/2318 27012G18KT P6SM FEW250
     FM222100 27014G22KT P6SM FEW200
     FM230200 25008KT P6SM SCT200
     FM231000 29009KT P6SM BKN030
     FM231300 29014G22KT P6SM OVC025=

USA.gov is the U.S. government's official web portal to all federal, state and local government web resources and services.